sensor_id;sensor_type;location;lat;lon;timestamp;P1;durP1;ratioP1;P2;durP2;ratioP2
38182;SDS011;23991;52.430;10.586;2023-05-10T00:00:42;5.50;;;3.65;;
38182;SDS011;23991;52.430;10.586;2023-05-10T00:03:08;5.20;;;3.40;;
38182;SDS011;23991;52.430;10.586;2023-05-10T00:05:33;7.43;;;3.30;;
38182;SDS011;23991;52.430;10.586;2023-05-10T00:07:59;5.88;;;3.58;;
38182;SDS011;23991;52.430;10.586;2023-05-10T00:10:24;6.07;;;3.53;;
38182;SDS011;23991;52.430;10.586;2023-05-10T00:12:50;5.65;;;3.40;;
38182;SDS011;23991;52.430;10.586;2023-05-10T00:15:15;6.25;;;3.75;;
38182;SDS011;23991;52.430;10.586;2023-05-10T00:17:41;6.40;;;3.28;;
38182;SDS011;23991;52.430;10.586;2023-05-10T00:20:06;4.97;;;3.42;;
38182;SDS011;23991;52.430;10.586;2023-05-10T00:22:32;7.22;;;3.50;;
38182;SDS011;23991;52.430;10.586;2023-05-10T00:24:58;5.20;;;3.20;;
38182;SDS011;23991;52.430;10.586;2023-05-10T00:27:24;4.47;;;3.53;;
38182;SDS011;23991;52.430;10.586;2023-05-10T00:29:49;6.72;;;3.55;;
38182;SDS011;23991;52.430;10.586;2023-05-10T00:32:15;5.03;;;4.05;;
38182;SDS011;23991;52.430;10.586;2023-05-10T00:34:40;4.55;;;3.38;;
38182;SDS011;23991;52.430;10.586;2023-05-10T00:37:06;5.85;;;3.92;;
38182;SDS011;23991;52.430;10.586;2023-05-10T00:39:31;4.88;;;3.45;;
38182;SDS011;23991;52.430;10.586;2023-05-10T00:41:57;6.97;;;3.90;;
38182;SDS011;23991;52.430;10.586;2023-05-10T00:44:22;6.68;;;3.50;;
38182;SDS011;23991;52.430;10.586;2023-05-10T00:46:48;6.82;;;3.35;;
38182;SDS011;23991;52.430;10.586;2023-05-10T00:49:14;5.65;;;3.70;;
38182;SDS011;23991;52.430;10.586;2023-05-10T00:51:41;3.90;;;3.20;;
38182;SDS011;23991;52.430;10.586;2023-05-10T00:54:07;4.63;;;2.97;;
38182;SDS011;23991;52.430;10.586;2023-05-10T00:56:35;8.68;;;3.45;;
38182;SDS011;23991;52.430;10.586;2023-05-10T00:59:01;5.90;;;3.50;;
38182;SDS011;23991;52.430;10.586;2023-05-10T01:01:27;5.07;;;3.00;;
38182;SDS011;23991;52.430;10.586;2023-05-10T01:03:54;5.65;;;3.75;;
38182;SDS011;23991;52.430;10.586;2023-05-10T01:06:20;5.35;;;3.40;;
38182;SDS011;23991;52.430;10.586;2023-05-10T01:08:45;8.63;;;3.38;;
38182;SDS011;23991;52.430;10.586;2023-05-10T01:11:12;4.75;;;3.50;;
38182;SDS011;23991;52.430;10.586;2023-05-10T01:13:38;4.15;;;2.97;;
38182;SDS011;23991;52.430;10.586;2023-05-10T01:16:07;4.10;;;3.23;;
38182;SDS011;23991;52.430;10.586;2023-05-10T01:18:33;6.45;;;3.70;;
38182;SDS011;23991;52.430;10.586;2023-05-10T01:21:23;5.97;;;3.58;;
38182;SDS011;23991;52.430;10.586;2023-05-10T01:24:21;5.68;;;3.40;;
38182;SDS011;23991;52.430;10.586;2023-05-10T01:32:42;8.32;;;3.60;;
38182;SDS011;23991;52.430;10.586;2023-05-10T01:38:09;5.93;;;3.83;;
38182;SDS011;23991;52.430;10.586;2023-05-10T01:43:34;4.47;;;3.50;;
38182;SDS011;23991;52.430;10.586;2023-05-10T01:46:08;4.60;;;3.30;;
38182;SDS011;23991;52.430;10.586;2023-05-10T01:48:42;7.22;;;3.40;;
38182;SDS011;23991;52.430;10.586;2023-05-10T01:51:14;6.68;;;3.88;;
38182;SDS011;23991;52.430;10.586;2023-05-10T01:53:45;5.90;;;3.33;;
38182;SDS011;23991;52.430;10.586;2023-05-10T01:56:12;6.03;;;3.40;;
38182;SDS011;23991;52.430;10.586;2023-05-10T01:58:40;5.75;;;3.65;;
38182;SDS011;23991;52.430;10.586;2023-05-10T02:01:10;5.75;;;3.70;;
38182;SDS011;23991;52.430;10.586;2023-05-10T02:03:36;7.93;;;3.30;;
38182;SDS011;23991;52.430;10.586;2023-05-10T02:06:03;5.90;;;3.50;;
38182;SDS011;23991;52.430;10.586;2023-05-10T02:08:30;7.78;;;3.72;;
38182;SDS011;23991;52.430;10.586;2023-05-10T02:10:56;5.70;;;3.53;;
38182;SDS011;23991;52.430;10.586;2023-05-10T02:13:23;5.13;;;3.35;;
38182;SDS011;23991;52.430;10.586;2023-05-10T02:15:50;5.82;;;4.03;;
38182;SDS011;23991;52.430;10.586;2023-05-10T02:18:18;5.00;;;3.40;;
38182;SDS011;23991;52.430;10.586;2023-05-10T02:20:44;4.65;;;3.33;;
38182;SDS011;23991;52.430;10.586;2023-05-10T02:23:11;7.25;;;3.95;;
38182;SDS011;23991;52.430;10.586;2023-05-10T02:25:38;7.35;;;4.00;;
38182;SDS011;23991;52.430;10.586;2023-05-10T02:28:04;6.05;;;3.78;;
38182;SDS011;23991;52.430;10.586;2023-05-10T02:30:32;4.05;;;3.17;;
38182;SDS011;23991;52.430;10.586;2023-05-10T02:32:58;5.30;;;3.75;;
38182;SDS011;23991;52.430;10.586;2023-05-10T02:35:25;6.13;;;3.72;;
38182;SDS011;23991;52.430;10.586;2023-05-10T02:37:52;6.32;;;3.90;;
38182;SDS011;23991;52.430;10.586;2023-05-10T02:40:18;4.63;;;3.38;;
38182;SDS011;23991;52.430;10.586;2023-05-10T02:42:46;5.47;;;3.85;;
38182;SDS011;23991;52.430;10.586;2023-05-10T02:45:14;8.02;;;3.38;;
38182;SDS011;23991;52.430;10.586;2023-05-10T02:47:45;6.47;;;3.85;;
38182;SDS011;23991;52.430;10.586;2023-05-10T02:50:10;4.82;;;3.30;;
38182;SDS011;23991;52.430;10.586;2023-05-10T02:52:40;6.03;;;3.78;;
38182;SDS011;23991;52.430;10.586;2023-05-10T02:55:11;7.82;;;3.88;;
38182;SDS011;23991;52.430;10.586;2023-05-10T02:57:46;7.27;;;3.60;;
38182;SDS011;23991;52.430;10.586;2023-05-10T03:00:17;7.85;;;4.75;;
38182;SDS011;23991;52.430;10.586;2023-05-10T03:02:42;5.30;;;3.53;;
38182;SDS011;23991;52.430;10.586;2023-05-10T03:05:08;5.63;;;3.78;;
38182;SDS011;23991;52.430;10.586;2023-05-10T03:07:34;6.78;;;3.83;;
38182;SDS011;23991;52.430;10.586;2023-05-10T03:10:00;6.60;;;4.30;;
38182;SDS011;23991;52.430;10.586;2023-05-10T03:12:46;6.40;;;4.22;;
38182;SDS011;23991;52.430;10.586;2023-05-10T03:21:11;5.72;;;3.63;;
38182;SDS011;23991;52.430;10.586;2023-05-10T03:26:09;6.18;;;3.95;;
38182;SDS011;23991;52.430;10.586;2023-05-10T03:28:37;6.07;;;3.67;;
38182;SDS011;23991;52.430;10.586;2023-05-10T03:31:04;6.20;;;3.72;;
38182;SDS011;23991;52.430;10.586;2023-05-10T03:33:30;7.53;;;4.13;;
38182;SDS011;23991;52.430;10.586;2023-05-10T03:35:56;6.13;;;3.85;;
38182;SDS011;23991;52.430;10.586;2023-05-10T03:38:22;5.20;;;4.07;;
38182;SDS011;23991;52.430;10.586;2023-05-10T03:40:47;6.60;;;3.78;;
38182;SDS011;23991;52.430;10.586;2023-05-10T03:43:13;6.03;;;4.30;;
38182;SDS011;23991;52.430;10.586;2023-05-10T03:45:38;7.72;;;4.13;;
38182;SDS011;23991;52.430;10.586;2023-05-10T03:48:04;6.13;;;3.90;;
38182;SDS011;23991;52.430;10.586;2023-05-10T03:50:30;6.00;;;3.83;;
38182;SDS011;23991;52.430;10.586;2023-05-10T03:52:56;10.18;;;4.43;;
38182;SDS011;23991;52.430;10.586;2023-05-10T03:55:22;6.03;;;3.95;;
38182;SDS011;23991;52.430;10.586;2023-05-10T03:57:48;9.02;;;3.58;;
38182;SDS011;23991;52.430;10.586;2023-05-10T04:00:14;8.35;;;4.03;;
38182;SDS011;23991;52.430;10.586;2023-05-10T04:02:40;6.65;;;3.90;;
38182;SDS011;23991;52.430;10.586;2023-05-10T04:05:06;6.05;;;3.92;;
38182;SDS011;23991;52.430;10.586;2023-05-10T04:07:31;7.55;;;3.83;;
38182;SDS011;23991;52.430;10.586;2023-05-10T04:09:57;6.75;;;3.88;;
38182;SDS011;23991;52.430;10.586;2023-05-10T04:12:22;8.30;;;3.92;;
38182;SDS011;23991;52.430;10.586;2023-05-10T04:14:48;6.22;;;3.92;;
38182;SDS011;23991;52.430;10.586;2023-05-10T04:17:14;5.82;;;3.65;;
38182;SDS011;23991;52.430;10.586;2023-05-10T04:19:39;5.45;;;3.78;;
38182;SDS011;23991;52.430;10.586;2023-05-10T04:22:05;7.07;;;3.72;;
38182;SDS011;23991;52.430;10.586;2023-05-10T04:24:30;5.50;;;3.80;;
38182;SDS011;23991;52.430;10.586;2023-05-10T04:26:56;5.25;;;3.65;;
38182;SDS011;23991;52.430;10.586;2023-05-10T04:29:21;9.00;;;3.88;;
38182;SDS011;23991;52.430;10.586;2023-05-10T04:31:47;5.32;;;3.80;;
38182;SDS011;23991;52.430;10.586;2023-05-10T04:34:13;5.70;;;3.67;;
38182;SDS011;23991;52.430;10.586;2023-05-10T04:36:39;8.93;;;4.05;;
38182;SDS011;23991;52.430;10.586;2023-05-10T04:39:04;6.65;;;4.20;;
38182;SDS011;23991;52.430;10.586;2023-05-10T04:41:30;5.07;;;3.70;;
38182;SDS011;23991;52.430;10.586;2023-05-10T04:43:56;9.75;;;4.28;;
38182;SDS011;23991;52.430;10.586;2023-05-10T04:46:21;4.93;;;3.90;;
38182;SDS011;23991;52.430;10.586;2023-05-10T04:48:47;6.45;;;3.67;;
38182;SDS011;23991;52.430;10.586;2023-05-10T04:51:13;5.95;;;3.92;;
38182;SDS011;23991;52.430;10.586;2023-05-10T04:53:38;4.70;;;3.78;;
38182;SDS011;23991;52.430;10.586;2023-05-10T04:56:04;5.65;;;4.13;;
38182;SDS011;23991;52.430;10.586;2023-05-10T04:58:30;5.57;;;4.05;;
38182;SDS011;23991;52.430;10.586;2023-05-10T05:00:56;5.72;;;3.80;;
38182;SDS011;23991;52.430;10.586;2023-05-10T05:03:21;5.43;;;3.83;;
38182;SDS011;23991;52.430;10.586;2023-05-10T05:05:47;7.03;;;4.30;;
38182;SDS011;23991;52.430;10.586;2023-05-10T05:08:13;5.47;;;3.45;;
38182;SDS011;23991;52.430;10.586;2023-05-10T05:10:38;8.32;;;3.90;;
38182;SDS011;23991;52.430;10.586;2023-05-10T05:13:07;5.43;;;3.60;;
38182;SDS011;23991;52.430;10.586;2023-05-10T05:15:35;6.32;;;4.28;;
38182;SDS011;23991;52.430;10.586;2023-05-10T05:18:01;7.45;;;4.18;;
38182;SDS011;23991;52.430;10.586;2023-05-10T05:20:26;8.25;;;4.82;;
38182;SDS011;23991;52.430;10.586;2023-05-10T05:22:52;7.22;;;3.47;;
38182;SDS011;23991;52.430;10.586;2023-05-10T05:25:18;5.45;;;4.18;;
38182;SDS011;23991;52.430;10.586;2023-05-10T05:27:43;8.18;;;3.95;;
38182;SDS011;23991;52.430;10.586;2023-05-10T05:30:09;6.32;;;3.58;;
38182;SDS011;23991;52.430;10.586;2023-05-10T05:32:35;9.00;;;3.97;;
38182;SDS011;23991;52.430;10.586;2023-05-10T05:35:00;8.80;;;4.13;;
38182;SDS011;23991;52.430;10.586;2023-05-10T05:37:26;6.20;;;4.32;;
38182;SDS011;23991;52.430;10.586;2023-05-10T05:39:51;5.38;;;4.13;;
38182;SDS011;23991;52.430;10.586;2023-05-10T05:42:17;9.15;;;4.53;;
38182;SDS011;23991;52.430;10.586;2023-05-10T05:44:43;6.25;;;3.88;;
38182;SDS011;23991;52.430;10.586;2023-05-10T05:47:09;6.18;;;4.25;;
38182;SDS011;23991;52.430;10.586;2023-05-10T05:49:35;6.60;;;4.25;;
38182;SDS011;23991;52.430;10.586;2023-05-10T05:52:01;8.07;;;4.32;;
38182;SDS011;23991;52.430;10.586;2023-05-10T05:54:28;6.50;;;4.22;;
38182;SDS011;23991;52.430;10.586;2023-05-10T05:56:57;6.90;;;4.28;;
38182;SDS011;23991;52.430;10.586;2023-05-10T05:59:23;7.82;;;4.85;;
38182;SDS011;23991;52.430;10.586;2023-05-10T06:01:49;5.60;;;4.15;;
38182;SDS011;23991;52.430;10.586;2023-05-10T06:04:15;5.43;;;4.00;;
38182;SDS011;23991;52.430;10.586;2023-05-10T06:06:41;5.47;;;4.00;;
38182;SDS011;23991;52.430;10.586;2023-05-10T06:09:07;5.22;;;3.67;;
38182;SDS011;23991;52.430;10.586;2023-05-10T06:11:36;8.18;;;4.50;;
38182;SDS011;23991;52.430;10.586;2023-05-10T06:14:01;6.88;;;4.43;;
38182;SDS011;23991;52.430;10.586;2023-05-10T06:16:29;6.50;;;4.30;;
38182;SDS011;23991;52.430;10.586;2023-05-10T06:18:55;6.82;;;4.00;;
38182;SDS011;23991;52.430;10.586;2023-05-10T06:21:20;10.43;;;4.00;;
38182;SDS011;23991;52.430;10.586;2023-05-10T06:23:46;7.30;;;5.00;;
38182;SDS011;23991;52.430;10.586;2023-05-10T06:26:12;7.63;;;3.80;;
38182;SDS011;23991;52.430;10.586;2023-05-10T06:28:38;5.32;;;4.03;;
38182;SDS011;23991;52.430;10.586;2023-05-10T06:31:05;5.97;;;4.20;;
38182;SDS011;23991;52.430;10.586;2023-05-10T06:33:31;8.15;;;4.65;;
38182;SDS011;23991;52.430;10.586;2023-05-10T06:35:57;8.07;;;3.95;;
38182;SDS011;23991;52.430;10.586;2023-05-10T06:38:23;7.30;;;3.80;;
38182;SDS011;23991;52.430;10.586;2023-05-10T06:40:48;7.78;;;4.55;;
38182;SDS011;23991;52.430;10.586;2023-05-10T06:43:14;7.90;;;4.13;;
38182;SDS011;23991;52.430;10.586;2023-05-10T06:45:39;5.97;;;4.20;;
38182;SDS011;23991;52.430;10.586;2023-05-10T06:48:06;7.05;;;3.88;;
38182;SDS011;23991;52.430;10.586;2023-05-10T06:50:31;6.85;;;4.80;;
38182;SDS011;23991;52.430;10.586;2023-05-10T06:52:58;6.40;;;4.00;;
38182;SDS011;23991;52.430;10.586;2023-05-10T06:55:24;5.38;;;3.95;;
38182;SDS011;23991;52.430;10.586;2023-05-10T06:57:50;7.53;;;4.05;;
38182;SDS011;23991;52.430;10.586;2023-05-10T07:00:16;9.23;;;4.32;;
38182;SDS011;23991;52.430;10.586;2023-05-10T07:02:42;5.57;;;4.00;;
38182;SDS011;23991;52.430;10.586;2023-05-10T07:05:08;7.82;;;4.25;;
38182;SDS011;23991;52.430;10.586;2023-05-10T07:07:34;4.63;;;3.58;;
38182;SDS011;23991;52.430;10.586;2023-05-10T07:09:59;4.78;;;4.18;;
38182;SDS011;23991;52.430;10.586;2023-05-10T07:12:25;12.55;;;4.70;;
38182;SDS011;23991;52.430;10.586;2023-05-10T07:14:51;7.78;;;4.63;;
38182;SDS011;23991;52.430;10.586;2023-05-10T07:17:16;8.52;;;4.20;;
38182;SDS011;23991;52.430;10.586;2023-05-10T07:19:42;6.32;;;4.40;;
38182;SDS011;23991;52.430;10.586;2023-05-10T07:22:08;6.25;;;4.72;;
38182;SDS011;23991;52.430;10.586;2023-05-10T07:24:33;6.85;;;4.20;;
38182;SDS011;23991;52.430;10.586;2023-05-10T07:27:00;4.88;;;3.97;;
38182;SDS011;23991;52.430;10.586;2023-05-10T07:29:25;7.90;;;3.88;;
38182;SDS011;23991;52.430;10.586;2023-05-10T07:31:51;7.75;;;4.22;;
38182;SDS011;23991;52.430;10.586;2023-05-10T07:34:17;6.57;;;4.32;;
38182;SDS011;23991;52.430;10.586;2023-05-10T07:36:42;8.25;;;4.47;;
38182;SDS011;23991;52.430;10.586;2023-05-10T07:39:08;5.90;;;4.20;;
38182;SDS011;23991;52.430;10.586;2023-05-10T07:41:33;9.65;;;5.32;;
38182;SDS011;23991;52.430;10.586;2023-05-10T07:43:59;6.47;;;4.72;;
38182;SDS011;23991;52.430;10.586;2023-05-10T07:46:24;7.53;;;5.32;;
38182;SDS011;23991;52.430;10.586;2023-05-10T07:48:50;7.60;;;5.03;;
38182;SDS011;23991;52.430;10.586;2023-05-10T07:51:15;6.65;;;4.75;;
38182;SDS011;23991;52.430;10.586;2023-05-10T07:53:41;8.65;;;4.80;;
38182;SDS011;23991;52.430;10.586;2023-05-10T07:56:29;7.28;;;5.18;;
38182;SDS011;23991;52.430;10.586;2023-05-10T08:01:22;7.00;;;5.25;;
38182;SDS011;23991;52.430;10.586;2023-05-10T08:03:48;8.18;;;5.68;;
38182;SDS011;23991;52.430;10.586;2023-05-10T08:06:16;8.75;;;5.20;;
38182;SDS011;23991;52.430;10.586;2023-05-10T08:08:42;7.05;;;4.57;;
38182;SDS011;23991;52.430;10.586;2023-05-10T08:11:08;10.07;;;4.95;;
38182;SDS011;23991;52.430;10.586;2023-05-10T08:13:33;6.88;;;5.18;;
38182;SDS011;23991;52.430;10.586;2023-05-10T08:15:59;7.93;;;5.10;;
38182;SDS011;23991;52.430;10.586;2023-05-10T08:18:25;6.07;;;4.70;;
38182;SDS011;23991;52.430;10.586;2023-05-10T08:20:51;8.98;;;5.38;;
38182;SDS011;23991;52.430;10.586;2023-05-10T08:23:16;9.30;;;5.20;;
38182;SDS011;23991;52.430;10.586;2023-05-10T08:25:42;7.28;;;4.82;;
38182;SDS011;23991;52.430;10.586;2023-05-10T08:28:07;9.57;;;5.47;;
38182;SDS011;23991;52.430;10.586;2023-05-10T08:30:33;6.80;;;5.50;;
38182;SDS011;23991;52.430;10.586;2023-05-10T08:32:58;7.93;;;5.32;;
38182;SDS011;23991;52.430;10.586;2023-05-10T08:35:23;7.82;;;5.25;;
38182;SDS011;23991;52.430;10.586;2023-05-10T08:37:50;8.15;;;6.15;;
38182;SDS011;23991;52.430;10.586;2023-05-10T08:40:16;7.72;;;5.30;;
38182;SDS011;23991;52.430;10.586;2023-05-10T08:42:48;9.30;;;5.18;;
38182;SDS011;23991;52.430;10.586;2023-05-10T08:45:19;6.32;;;4.78;;
38182;SDS011;23991;52.430;10.586;2023-05-10T08:47:46;7.13;;;5.30;;
38182;SDS011;23991;52.430;10.586;2023-05-10T08:50:11;6.03;;;5.07;;
38182;SDS011;23991;52.430;10.586;2023-05-10T08:52:38;8.02;;;5.50;;
38182;SDS011;23991;52.430;10.586;2023-05-10T08:55:05;9.20;;;5.60;;
38182;SDS011;23991;52.430;10.586;2023-05-10T08:57:32;7.07;;;5.93;;
38182;SDS011;23991;52.430;10.586;2023-05-10T08:59:57;8.40;;;5.70;;
38182;SDS011;23991;52.430;10.586;2023-05-10T09:02:25;7.93;;;5.38;;
38182;SDS011;23991;52.430;10.586;2023-05-10T09:04:51;7.97;;;5.47;;
38182;SDS011;23991;52.430;10.586;2023-05-10T09:07:17;8.15;;;5.78;;
38182;SDS011;23991;52.430;10.586;2023-05-10T09:09:43;8.52;;;5.65;;
38182;SDS011;23991;52.430;10.586;2023-05-10T09:12:10;9.85;;;5.75;;
38182;SDS011;23991;52.430;10.586;2023-05-10T09:14:37;6.50;;;5.25;;
38182;SDS011;23991;52.430;10.586;2023-05-10T09:17:03;7.38;;;6.05;;
38182;SDS011;23991;52.430;10.586;2023-05-10T09:19:29;7.82;;;6.13;;
38182;SDS011;23991;52.430;10.586;2023-05-10T09:21:55;9.32;;;6.35;;
38182;SDS011;23991;52.430;10.586;2023-05-10T09:24:24;7.70;;;6.45;;
38182;SDS011;23991;52.430;10.586;2023-05-10T09:29:16;6.95;;;6.00;;
38182;SDS011;23991;52.430;10.586;2023-05-10T09:31:46;9.15;;;6.50;;
38182;SDS011;23991;52.430;10.586;2023-05-10T09:34:16;8.88;;;6.00;;
38182;SDS011;23991;52.430;10.586;2023-05-10T09:36:55;8.18;;;5.97;;
38182;SDS011;23991;52.430;10.586;2023-05-10T09:39:37;9.07;;;5.93;;
38182;SDS011;23991;52.430;10.586;2023-05-10T09:42:04;7.55;;;5.97;;
38182;SDS011;23991;52.430;10.586;2023-05-10T09:44:31;7.10;;;6.20;;
38182;SDS011;23991;52.430;10.586;2023-05-10T09:46:58;7.88;;;6.15;;
38182;SDS011;23991;52.430;10.586;2023-05-10T09:49:24;10.07;;;7.18;;
38182;SDS011;23991;52.430;10.586;2023-05-10T09:52:23;7.35;;;6.20;;
38182;SDS011;23991;52.430;10.586;2023-05-10T09:54:45;6.93;;;5.75;;
38182;SDS011;23991;52.430;10.586;2023-05-10T09:57:18;8.90;;;6.18;;
38182;SDS011;23991;52.430;10.586;2023-05-10T09:59:46;10.00;;;6.00;;
38182;SDS011;23991;52.430;10.586;2023-05-10T10:02:13;8.02;;;6.10;;
38182;SDS011;23991;52.430;10.586;2023-05-10T10:04:39;7.50;;;6.32;;
38182;SDS011;23991;52.430;10.586;2023-05-10T10:07:05;8.15;;;6.57;;
38182;SDS011;23991;52.430;10.586;2023-05-10T10:09:32;8.90;;;6.40;;
38182;SDS011;23991;52.430;10.586;2023-05-10T10:11:59;8.80;;;7.40;;
38182;SDS011;23991;52.430;10.586;2023-05-10T10:14:25;8.73;;;7.25;;
38182;SDS011;23991;52.430;10.586;2023-05-10T10:16:51;8.70;;;6.35;;
38182;SDS011;23991;52.430;10.586;2023-05-10T10:19:20;8.27;;;6.20;;
38182;SDS011;23991;52.430;10.586;2023-05-10T10:21:49;9.23;;;6.47;;
38182;SDS011;23991;52.430;10.586;2023-05-10T10:24:15;8.63;;;6.60;;
38182;SDS011;23991;52.430;10.586;2023-05-10T10:26:41;7.93;;;6.45;;
38182;SDS011;23991;52.430;10.586;2023-05-10T10:29:31;8.20;;;5.53;;
38182;SDS011;23991;52.430;10.586;2023-05-10T10:32:22;9.60;;;6.72;;
38182;SDS011;23991;52.430;10.586;2023-05-10T10:34:56;7.30;;;5.47;;
38182;SDS011;23991;52.430;10.586;2023-05-10T10:37:22;7.15;;;4.40;;
38182;SDS011;23991;52.430;10.586;2023-05-10T10:39:49;4.07;;;3.00;;
38182;SDS011;23991;52.430;10.586;2023-05-10T10:42:15;4.25;;;2.63;;
38182;SDS011;23991;52.430;10.586;2023-05-10T10:45:11;2.95;;;2.35;;
38182;SDS011;23991;52.430;10.586;2023-05-10T10:47:37;2.97;;;2.30;;
38182;SDS011;23991;52.430;10.586;2023-05-10T10:50:04;4.30;;;2.25;;
38182;SDS011;23991;52.430;10.586;2023-05-10T10:52:34;2.40;;;1.90;;
38182;SDS011;23991;52.430;10.586;2023-05-10T10:57:28;2.78;;;1.90;;
38182;SDS011;23991;52.430;10.586;2023-05-10T11:00:39;4.57;;;1.92;;
38182;SDS011;23991;52.430;10.586;2023-05-10T11:02:48;2.80;;;2.00;;
38182;SDS011;23991;52.430;10.586;2023-05-10T11:10:36;3.35;;;1.73;;
38182;SDS011;23991;52.430;10.586;2023-05-10T11:15:33;2.13;;;1.48;;
38182;SDS011;23991;52.430;10.586;2023-05-10T11:18:16;1.83;;;1.45;;
38182;SDS011;23991;52.430;10.586;2023-05-10T11:21:19;1.92;;;1.30;;
38182;SDS011;23991;52.430;10.586;2023-05-10T11:26:08;0.82;;;0.80;;
38182;SDS011;23991;52.430;10.586;2023-05-10T11:28:41;2.50;;;1.00;;
38182;SDS011;23991;52.430;10.586;2023-05-10T11:31:13;2.55;;;1.00;;
38182;SDS011;23991;52.430;10.586;2023-05-10T11:33:43;1.20;;;0.77;;
38182;SDS011;23991;52.430;10.586;2023-05-10T11:36:17;0.93;;;0.80;;
38182;SDS011;23991;52.430;10.586;2023-05-10T11:38:44;2.22;;;0.95;;
38182;SDS011;23991;52.430;10.586;2023-05-10T11:41:10;2.25;;;1.30;;
38182;SDS011;23991;52.430;10.586;2023-05-10T11:43:38;1.38;;;1.10;;
38182;SDS011;23991;52.430;10.586;2023-05-10T11:46:09;1.52;;;1.10;;
38182;SDS011;23991;52.430;10.586;2023-05-10T11:48:36;3.28;;;1.20;;
38182;SDS011;23991;52.430;10.586;2023-05-10T11:51:03;1.30;;;1.10;;
38182;SDS011;23991;52.430;10.586;2023-05-10T11:53:30;2.90;;;1.10;;
38182;SDS011;23991;52.430;10.586;2023-05-10T11:56:04;1.48;;;1.05;;
38182;SDS011;23991;52.430;10.586;2023-05-10T11:58:34;2.00;;;1.30;;
38182;SDS011;23991;52.430;10.586;2023-05-10T12:01:01;1.90;;;1.05;;
38182;SDS011;23991;52.430;10.586;2023-05-10T12:03:27;1.13;;;0.90;;
38182;SDS011;23991;52.430;10.586;2023-05-10T12:05:54;1.17;;;1.00;;
38182;SDS011;23991;52.430;10.586;2023-05-10T12:08:24;1.17;;;0.90;;
38182;SDS011;23991;52.430;10.586;2023-05-10T12:10:52;3.30;;;1.17;;
38182;SDS011;23991;52.430;10.586;2023-05-10T12:13:18;1.15;;;1.05;;
38182;SDS011;23991;52.430;10.586;2023-05-10T12:15:46;2.22;;;1.17;;
38182;SDS011;23991;52.430;10.586;2023-05-10T12:18:12;1.67;;;1.33;;
38182;SDS011;23991;52.430;10.586;2023-05-10T12:20:39;1.65;;;1.40;;
38182;SDS011;23991;52.430;10.586;2023-05-10T12:23:07;2.05;;;1.60;;
38182;SDS011;23991;52.430;10.586;2023-05-10T12:25:35;3.50;;;1.80;;
38182;SDS011;23991;52.430;10.586;2023-05-10T12:28:03;2.47;;;1.80;;
38182;SDS011;23991;52.430;10.586;2023-05-10T12:30:31;2.50;;;1.88;;
38182;SDS011;23991;52.430;10.586;2023-05-10T12:33:01;2.30;;;2.00;;
38182;SDS011;23991;52.430;10.586;2023-05-10T12:35:32;2.42;;;2.00;;
38182;SDS011;23991;52.430;10.586;2023-05-10T12:37:58;2.95;;;2.13;;
38182;SDS011;23991;52.430;10.586;2023-05-10T12:40:24;3.00;;;2.22;;
38182;SDS011;23991;52.430;10.586;2023-05-10T12:42:50;2.85;;;2.55;;
38182;SDS011;23991;52.430;10.586;2023-05-10T12:45:16;2.40;;;2.15;;
38182;SDS011;23991;52.430;10.586;2023-05-10T12:47:42;2.40;;;2.20;;
38182;SDS011;23991;52.430;10.586;2023-05-10T12:50:08;3.03;;;2.50;;
38182;SDS011;23991;52.430;10.586;2023-05-10T12:52:34;2.65;;;2.33;;
38182;SDS011;23991;52.430;10.586;2023-05-10T12:54:59;3.70;;;2.75;;
38182;SDS011;23991;52.430;10.586;2023-05-10T12:57:25;4.13;;;2.38;;
38182;SDS011;23991;52.430;10.586;2023-05-10T12:59:52;3.17;;;2.70;;
38182;SDS011;23991;52.430;10.586;2023-05-10T13:02:17;2.75;;;2.45;;
38182;SDS011;23991;52.430;10.586;2023-05-10T13:04:46;2.60;;;2.30;;
38182;SDS011;23991;52.430;10.586;2023-05-10T13:07:12;2.70;;;2.30;;
38182;SDS011;23991;52.430;10.586;2023-05-10T13:09:38;3.33;;;2.40;;
38182;SDS011;23991;52.430;10.586;2023-05-10T13:12:04;2.92;;;2.03;;
38182;SDS011;23991;52.430;10.586;2023-05-10T13:14:30;2.78;;;2.00;;
38182;SDS011;23991;52.430;10.586;2023-05-10T13:16:56;2.88;;;2.28;;
38182;SDS011;23991;52.430;10.586;2023-05-10T13:19:21;3.45;;;2.10;;
38182;SDS011;23991;52.430;10.586;2023-05-10T13:21:47;2.05;;;1.75;;
38182;SDS011;23991;52.430;10.586;2023-05-10T13:24:12;3.88;;;2.38;;
38182;SDS011;23991;52.430;10.586;2023-05-10T13:26:42;2.88;;;1.90;;
38182;SDS011;23991;52.430;10.586;2023-05-10T13:29:08;2.50;;;2.13;;
38182;SDS011;23991;52.430;10.586;2023-05-10T13:31:34;2.60;;;2.30;;
38182;SDS011;23991;52.430;10.586;2023-05-10T13:33:59;3.40;;;2.20;;
38182;SDS011;23991;52.430;10.586;2023-05-10T13:36:25;4.15;;;2.30;;
38182;SDS011;23991;52.430;10.586;2023-05-10T13:38:51;2.78;;;2.20;;
38182;SDS011;23991;52.430;10.586;2023-05-10T13:41:17;2.88;;;2.15;;
38182;SDS011;23991;52.430;10.586;2023-05-10T13:43:42;3.38;;;2.40;;
38182;SDS011;23991;52.430;10.586;2023-05-10T13:46:08;5.25;;;2.50;;
38182;SDS011;23991;52.430;10.586;2023-05-10T13:48:37;5.85;;;2.38;;
38182;SDS011;23991;52.430;10.586;2023-05-10T13:51:02;4.18;;;2.60;;
38182;SDS011;23991;52.430;10.586;2023-05-10T13:53:28;3.53;;;2.35;;
38182;SDS011;23991;52.430;10.586;2023-05-10T13:55:54;3.40;;;2.42;;
38182;SDS011;23991;52.430;10.586;2023-05-10T13:58:19;3.58;;;2.42;;
38182;SDS011;23991;52.430;10.586;2023-05-10T14:00:45;2.70;;;2.08;;
38182;SDS011;23991;52.430;10.586;2023-05-10T14:03:10;2.70;;;2.00;;
38182;SDS011;23991;52.430;10.586;2023-05-10T14:05:36;3.72;;;2.50;;
38182;SDS011;23991;52.430;10.586;2023-05-10T14:08:02;4.22;;;2.42;;
38182;SDS011;23991;52.430;10.586;2023-05-10T14:10:28;3.08;;;2.13;;
38182;SDS011;23991;52.430;10.586;2023-05-10T14:12:53;4.22;;;2.40;;
38182;SDS011;23991;52.430;10.586;2023-05-10T14:15:19;3.95;;;2.70;;
38182;SDS011;23991;52.430;10.586;2023-05-10T14:17:44;2.50;;;2.08;;
38182;SDS011;23991;52.430;10.586;2023-05-10T14:20:10;3.08;;;2.70;;
38182;SDS011;23991;52.430;10.586;2023-05-10T14:22:36;2.97;;;2.50;;
38182;SDS011;23991;52.430;10.586;2023-05-10T14:25:01;3.40;;;2.50;;
38182;SDS011;23991;52.430;10.586;2023-05-10T14:27:27;3.60;;;2.45;;
38182;SDS011;23991;52.430;10.586;2023-05-10T14:29:53;3.55;;;2.67;;
38182;SDS011;23991;52.430;10.586;2023-05-10T14:32:19;3.97;;;2.90;;
38182;SDS011;23991;52.430;10.586;2023-05-10T14:34:44;3.53;;;2.40;;
38182;SDS011;23991;52.430;10.586;2023-05-10T14:37:10;2.67;;;2.47;;
38182;SDS011;23991;52.430;10.586;2023-05-10T14:39:38;3.42;;;2.75;;
38182;SDS011;23991;52.430;10.586;2023-05-10T14:42:04;5.40;;;2.63;;
38182;SDS011;23991;52.430;10.586;2023-05-10T14:44:29;5.45;;;2.80;;
38182;SDS011;23991;52.430;10.586;2023-05-10T14:46:55;4.25;;;2.40;;
38182;SDS011;23991;52.430;10.586;2023-05-10T14:49:21;2.95;;;2.33;;
38182;SDS011;23991;52.430;10.586;2023-05-10T14:51:47;3.65;;;2.85;;
38182;SDS011;23991;52.430;10.586;2023-05-10T14:54:13;3.63;;;3.03;;
38182;SDS011;23991;52.430;10.586;2023-05-10T14:56:39;4.75;;;3.20;;
38182;SDS011;23991;52.430;10.586;2023-05-10T14:59:06;4.18;;;2.58;;
38182;SDS011;23991;52.430;10.586;2023-05-10T15:01:32;3.40;;;2.58;;
38182;SDS011;23991;52.430;10.586;2023-05-10T15:03:59;3.85;;;2.50;;
38182;SDS011;23991;52.430;10.586;2023-05-10T15:06:32;3.85;;;2.10;;
38182;SDS011;23991;52.430;10.586;2023-05-10T15:08:59;2.90;;;2.00;;
38182;SDS011;23991;52.430;10.586;2023-05-10T15:11:25;3.10;;;2.00;;